sensor_id;sensor_type;location;lat;lon;timestamp;P1;durP1;ratioP1;P2;durP2;ratioP2
74335;SDS011;62755;-33.398;-70.572;2023-01-25T00:02:16;10.68;;;3.30;;
74335;SDS011;62755;-33.398;-70.572;2023-01-25T00:05:06;18.80;;;6.60;;
74335;SDS011;62755;-33.398;-70.572;2023-01-25T00:07:55;9.88;;;1.85;;
74335;SDS011;62755;-33.398;-70.572;2023-01-25T00:10:47;16.50;;;8.18;;
74335;SDS011;62755;-33.398;-70.572;2023-01-25T00:13:38;24.27;;;13.32;;
74335;SDS011;62755;-33.398;-70.572;2023-01-25T00:16:27;19.40;;;9.50;;
74335;SDS011;62755;-33.398;-70.572;2023-01-25T00:19:17;15.98;;;5.85;;
74335;SDS011;62755;-33.398;-70.572;2023-01-25T00:22:06;21.70;;;9.13;;
74335;SDS011;62755;-33.398;-70.572;2023-01-25T00:24:55;21.55;;;4.90;;
74335;SDS011;62755;-33.398;-70.572;2023-01-25T00:27:48;17.02;;;3.83;;
74335;SDS011;62755;-33.398;-70.572;2023-01-25T00:30:37;13.68;;;5.90;;
74335;SDS011;62755;-33.398;-70.572;2023-01-25T00:33:33;13.57;;;2.22;;
74335;SDS011;62755;-33.398;-70.572;2023-01-25T00:36:32;6.90;;;2.10;;
74335;SDS011;62755;-33.398;-70.572;2023-01-25T00:39:28;10.23;;;1.98;;
74335;SDS011;62755;-33.398;-70.572;2023-01-25T00:42:17;11.48;;;1.50;;
74335;SDS011;62755;-33.398;-70.572;2023-01-25T00:45:10;6.07;;;1.50;;
74335;SDS011;62755;-33.398;-70.572;2023-01-25T00:47:59;8.10;;;1.33;;
74335;SDS011;62755;-33.398;-70.572;2023-01-25T00:50:48;8.32;;;1.30;;
74335;SDS011;62755;-33.398;-70.572;2023-01-25T00:53:38;9.25;;;1.15;;
74335;SDS011;62755;-33.398;-70.572;2023-01-25T00:56:27;6.60;;;1.15;;
74335;SDS011;62755;-33.398;-70.572;2023-01-25T00:59:16;10.90;;;1.45;;
74335;SDS011;62755;-33.398;-70.572;2023-01-25T01:02:07;12.75;;;1.27;;
74335;SDS011;62755;-33.398;-70.572;2023-01-25T01:04:57;10.93;;;1.50;;
74335;SDS011;62755;-33.398;-70.572;2023-01-25T01:07:48;11.93;;;1.48;;
74335;SDS011;62755;-33.398;-70.572;2023-01-25T01:10:37;6.28;;;1.00;;
74335;SDS011;62755;-33.398;-70.572;2023-01-25T01:13:26;7.30;;;1.30;;
74335;SDS011;62755;-33.398;-70.572;2023-01-25T01:16:16;14.13;;;1.77;;
74335;SDS011;62755;-33.398;-70.572;2023-01-25T01:19:07;8.10;;;1.50;;
74335;SDS011;62755;-33.398;-70.572;2023-01-25T01:21:56;6.22;;;1.27;;
74335;SDS011;62755;-33.398;-70.572;2023-01-25T01:24:46;6.68;;;1.30;;
74335;SDS011;62755;-33.398;-70.572;2023-01-25T01:27:35;7.72;;;1.30;;
74335;SDS011;62755;-33.398;-70.572;2023-01-25T01:30:25;13.95;;;1.20;;
74335;SDS011;62755;-33.398;-70.572;2023-01-25T01:33:14;10.48;;;1.30;;
74335;SDS011;62755;-33.398;-70.572;2023-01-25T01:36:09;8.48;;;1.52;;
74335;SDS011;62755;-33.398;-70.572;2023-01-25T01:38:59;8.75;;;1.15;;
74335;SDS011;62755;-33.398;-70.572;2023-01-25T01:41:49;11.07;;;1.35;;
74335;SDS011;62755;-33.398;-70.572;2023-01-25T01:44:43;5.78;;;1.10;;
74335;SDS011;62755;-33.398;-70.572;2023-01-25T01:47:35;7.97;;;0.95;;
74335;SDS011;62755;-33.398;-70.572;2023-01-25T01:53:20;5.53;;;1.20;;
74335;SDS011;62755;-33.398;-70.572;2023-01-25T01:56:16;7.13;;;1.50;;
74335;SDS011;62755;-33.398;-70.572;2023-01-25T01:59:10;11.98;;;1.40;;
74335;SDS011;62755;-33.398;-70.572;2023-01-25T02:02:01;6.10;;;1.13;;
74335;SDS011;62755;-33.398;-70.572;2023-01-25T02:04:50;9.57;;;1.40;;
74335;SDS011;62755;-33.398;-70.572;2023-01-25T02:07:45;7.68;;;1.15;;
74335;SDS011;62755;-33.398;-70.572;2023-01-25T02:10:41;5.30;;;1.20;;
74335;SDS011;62755;-33.398;-70.572;2023-01-25T02:13:32;6.00;;;1.20;;
74335;SDS011;62755;-33.398;-70.572;2023-01-25T02:16:24;10.00;;;1.38;;
74335;SDS011;62755;-33.398;-70.572;2023-01-25T02:19:16;5.95;;;1.30;;
74335;SDS011;62755;-33.398;-70.572;2023-01-25T02:22:14;17.00;;;1.42;;
74335;SDS011;62755;-33.398;-70.572;2023-01-25T02:25:10;4.68;;;1.10;;
74335;SDS011;62755;-33.398;-70.572;2023-01-25T02:28:02;9.52;;;1.60;;
74335;SDS011;62755;-33.398;-70.572;2023-01-25T02:30:55;8.23;;;1.27;;
74335;SDS011;62755;-33.398;-70.572;2023-01-25T02:33:44;8.13;;;1.20;;
74335;SDS011;62755;-33.398;-70.572;2023-01-25T02:36:33;11.10;;;1.35;;
74335;SDS011;62755;-33.398;-70.572;2023-01-25T02:39:23;5.55;;;1.00;;
74335;SDS011;62755;-33.398;-70.572;2023-01-25T02:42:15;9.25;;;1.27;;
74335;SDS011;62755;-33.398;-70.572;2023-01-25T02:45:05;9.48;;;1.70;;
74335;SDS011;62755;-33.398;-70.572;2023-01-25T02:47:58;9.57;;;1.50;;
74335;SDS011;62755;-33.398;-70.572;2023-01-25T02:50:47;12.00;;;1.50;;
74335;SDS011;62755;-33.398;-70.572;2023-01-25T02:53:36;10.10;;;1.23;;
74335;SDS011;62755;-33.398;-70.572;2023-01-25T02:56:26;5.78;;;1.40;;
74335;SDS011;62755;-33.398;-70.572;2023-01-25T02:59:18;10.57;;;1.63;;
74335;SDS011;62755;-33.398;-70.572;2023-01-25T03:02:08;8.25;;;1.20;;
74335;SDS011;62755;-33.398;-70.572;2023-01-25T03:04:57;17.00;;;1.60;;
74335;SDS011;62755;-33.398;-70.572;2023-01-25T03:07:46;9.35;;;2.00;;
74335;SDS011;62755;-33.398;-70.572;2023-01-25T03:10:38;14.15;;;1.77;;
74335;SDS011;62755;-33.398;-70.572;2023-01-25T03:13:29;8.02;;;1.45;;
74335;SDS011;62755;-33.398;-70.572;2023-01-25T03:16:20;11.05;;;1.20;;
74335;SDS011;62755;-33.398;-70.572;2023-01-25T03:19:09;14.65;;;2.00;;
74335;SDS011;62755;-33.398;-70.572;2023-01-25T03:21:59;7.70;;;1.42;;
74335;SDS011;62755;-33.398;-70.572;2023-01-25T03:24:48;13.50;;;1.60;;
74335;SDS011;62755;-33.398;-70.572;2023-01-25T03:27:37;7.68;;;1.63;;
74335;SDS011;62755;-33.398;-70.572;2023-01-25T03:30:28;7.88;;;1.40;;
74335;SDS011;62755;-33.398;-70.572;2023-01-25T03:33:20;7.35;;;1.33;;
74335;SDS011;62755;-33.398;-70.572;2023-01-25T03:36:10;5.15;;;1.50;;
74335;SDS011;62755;-33.398;-70.572;2023-01-25T03:38:59;7.53;;;1.33;;
74335;SDS011;62755;-33.398;-70.572;2023-01-25T03:41:48;14.50;;;1.55;;
74335;SDS011;62755;-33.398;-70.572;2023-01-25T03:44:38;5.65;;;1.13;;
74335;SDS011;62755;-33.398;-70.572;2023-01-25T03:47:27;12.23;;;1.60;;
74335;SDS011;62755;-33.398;-70.572;2023-01-25T03:50:18;9.98;;;1.98;;
74335;SDS011;62755;-33.398;-70.572;2023-01-25T03:53:23;13.77;;;4.40;;
74335;SDS011;62755;-33.398;-70.572;2023-01-25T03:56:16;15.25;;;4.57;;
74335;SDS011;62755;-33.398;-70.572;2023-01-25T03:59:05;9.85;;;2.67;;
74335;SDS011;62755;-33.398;-70.572;2023-01-25T04:01:55;5.63;;;1.70;;
74335;SDS011;62755;-33.398;-70.572;2023-01-25T04:04:44;11.40;;;1.60;;
74335;SDS011;62755;-33.398;-70.572;2023-01-25T04:07:35;8.70;;;2.03;;
74335;SDS011;62755;-33.398;-70.572;2023-01-25T04:10:25;10.70;;;2.10;;
74335;SDS011;62755;-33.398;-70.572;2023-01-25T04:13:14;8.65;;;1.40;;
74335;SDS011;62755;-33.398;-70.572;2023-01-25T04:16:03;12.55;;;1.48;;
74335;SDS011;62755;-33.398;-70.572;2023-01-25T04:18:53;10.57;;;1.60;;
74335;SDS011;62755;-33.398;-70.572;2023-01-25T04:21:43;12.65;;;1.30;;
74335;SDS011;62755;-33.398;-70.572;2023-01-25T04:24:34;8.32;;;1.00;;
74335;SDS011;62755;-33.398;-70.572;2023-01-25T04:27:23;6.60;;;1.45;;
74335;SDS011;62755;-33.398;-70.572;2023-01-25T04:30:13;15.93;;;1.48;;
74335;SDS011;62755;-33.398;-70.572;2023-01-25T04:33:03;6.00;;;1.15;;
74335;SDS011;62755;-33.398;-70.572;2023-01-25T04:35:52;9.40;;;2.10;;
74335;SDS011;62755;-33.398;-70.572;2023-01-25T04:38:42;9.35;;;1.83;;
74335;SDS011;62755;-33.398;-70.572;2023-01-25T04:41:33;7.55;;;1.00;;
74335;SDS011;62755;-33.398;-70.572;2023-01-25T04:44:22;5.93;;;1.10;;
74335;SDS011;62755;-33.398;-70.572;2023-01-25T04:47:11;13.32;;;1.55;;
74335;SDS011;62755;-33.398;-70.572;2023-01-25T04:50:01;6.03;;;0.90;;
74335;SDS011;62755;-33.398;-70.572;2023-01-25T04:52:50;8.75;;;1.67;;
74335;SDS011;62755;-33.398;-70.572;2023-01-25T04:55:42;13.63;;;1.50;;
74335;SDS011;62755;-33.398;-70.572;2023-01-25T04:58:35;14.27;;;1.83;;
74335;SDS011;62755;-33.398;-70.572;2023-01-25T05:01:25;10.90;;;1.33;;
74335;SDS011;62755;-33.398;-70.572;2023-01-25T05:04:14;14.32;;;1.35;;
74335;SDS011;62755;-33.398;-70.572;2023-01-25T05:07:03;7.75;;;1.40;;
74335;SDS011;62755;-33.398;-70.572;2023-01-25T05:09:52;7.25;;;1.30;;
74335;SDS011;62755;-33.398;-70.572;2023-01-25T05:12:42;8.57;;;1.13;;
74335;SDS011;62755;-33.398;-70.572;2023-01-25T05:15:33;8.85;;;1.50;;
74335;SDS011;62755;-33.398;-70.572;2023-01-25T05:18:22;11.77;;;1.10;;
74335;SDS011;62755;-33.398;-70.572;2023-01-25T05:21:11;6.82;;;1.50;;
74335;SDS011;62755;-33.398;-70.572;2023-01-25T05:24:13;6.53;;;1.35;;
74335;SDS011;62755;-33.398;-70.572;2023-01-25T05:27:03;10.43;;;1.33;;
74335;SDS011;62755;-33.398;-70.572;2023-01-25T05:29:52;9.75;;;1.20;;
74335;SDS011;62755;-33.398;-70.572;2023-01-25T05:32:44;9.25;;;1.25;;
74335;SDS011;62755;-33.398;-70.572;2023-01-25T05:35:33;7.57;;;1.30;;
74335;SDS011;62755;-33.398;-70.572;2023-01-25T05:38:22;7.28;;;1.27;;
74335;SDS011;62755;-33.398;-70.572;2023-01-25T05:41:11;8.80;;;1.30;;
74335;SDS011;62755;-33.398;-70.572;2023-01-25T05:44:01;10.02;;;1.35;;
74335;SDS011;62755;-33.398;-70.572;2023-01-25T05:46:50;8.55;;;1.15;;
74335;SDS011;62755;-33.398;-70.572;2023-01-25T05:49:42;10.15;;;1.65;;
74335;SDS011;62755;-33.398;-70.572;2023-01-25T05:52:31;12.25;;;1.40;;
74335;SDS011;62755;-33.398;-70.572;2023-01-25T05:55:20;13.02;;;1.40;;
74335;SDS011;62755;-33.398;-70.572;2023-01-25T05:58:09;8.63;;;1.20;;
74335;SDS011;62755;-33.398;-70.572;2023-01-25T06:00:59;7.57;;;1.30;;
74335;SDS011;62755;-33.398;-70.572;2023-01-25T06:03:49;13.18;;;1.65;;
74335;SDS011;62755;-33.398;-70.572;2023-01-25T06:06:40;12.27;;;1.55;;
74335;SDS011;62755;-33.398;-70.572;2023-01-25T06:09:29;9.23;;;1.60;;
74335;SDS011;62755;-33.398;-70.572;2023-01-25T06:12:19;7.68;;;1.30;;
74335;SDS011;62755;-33.398;-70.572;2023-01-25T06:15:09;8.50;;;1.48;;
74335;SDS011;62755;-33.398;-70.572;2023-01-25T06:17:58;7.32;;;1.50;;
74335;SDS011;62755;-33.398;-70.572;2023-01-25T06:20:48;7.90;;;1.63;;
74335;SDS011;62755;-33.398;-70.572;2023-01-25T06:23:39;9.63;;;1.08;;
74335;SDS011;62755;-33.398;-70.572;2023-01-25T06:26:28;9.63;;;1.20;;
74335;SDS011;62755;-33.398;-70.572;2023-01-25T06:29:18;9.05;;;1.60;;
74335;SDS011;62755;-33.398;-70.572;2023-01-25T06:32:07;10.98;;;1.65;;
74335;SDS011;62755;-33.398;-70.572;2023-01-25T06:34:56;15.30;;;1.70;;
74335;SDS011;62755;-33.398;-70.572;2023-01-25T06:37:46;10.05;;;1.83;;
74335;SDS011;62755;-33.398;-70.572;2023-01-25T06:40:37;11.32;;;1.33;;
74335;SDS011;62755;-33.398;-70.572;2023-01-25T06:43:26;11.52;;;1.73;;
74335;SDS011;62755;-33.398;-70.572;2023-01-25T06:46:16;6.30;;;1.75;;
74335;SDS011;62755;-33.398;-70.572;2023-01-25T06:49:06;9.60;;;1.30;;
74335;SDS011;62755;-33.398;-70.572;2023-01-25T06:51:55;8.55;;;1.52;;
74335;SDS011;62755;-33.398;-70.572;2023-01-25T06:54:46;9.45;;;1.48;;
74335;SDS011;62755;-33.398;-70.572;2023-01-25T06:57:37;7.85;;;1.58;;
74335;SDS011;62755;-33.398;-70.572;2023-01-25T07:00:26;15.88;;;1.70;;
74335;SDS011;62755;-33.398;-70.572;2023-01-25T07:03:15;7.38;;;1.42;;
74335;SDS011;62755;-33.398;-70.572;2023-01-25T07:06:05;7.70;;;1.77;;
74335;SDS011;62755;-33.398;-70.572;2023-01-25T07:09:00;12.98;;;1.67;;
74335;SDS011;62755;-33.398;-70.572;2023-01-25T07:11:49;7.93;;;1.60;;
74335;SDS011;62755;-33.398;-70.572;2023-01-25T07:14:40;8.73;;;1.80;;
74335;SDS011;62755;-33.398;-70.572;2023-01-25T07:17:30;13.25;;;2.00;;
74335;SDS011;62755;-33.398;-70.572;2023-01-25T07:20:19;11.10;;;1.52;;
74335;SDS011;62755;-33.398;-70.572;2023-01-25T07:23:08;11.48;;;1.63;;
74335;SDS011;62755;-33.398;-70.572;2023-01-25T07:25:57;9.75;;;1.90;;
74335;SDS011;62755;-33.398;-70.572;2023-01-25T07:28:48;11.63;;;1.60;;
74335;SDS011;62755;-33.398;-70.572;2023-01-25T07:31:39;9.48;;;1.60;;
74335;SDS011;62755;-33.398;-70.572;2023-01-25T07:34:29;8.05;;;1.75;;
74335;SDS011;62755;-33.398;-70.572;2023-01-25T07:37:18;7.78;;;1.50;;
74335;SDS011;62755;-33.398;-70.572;2023-01-25T07:40:08;12.15;;;1.65;;
74335;SDS011;62755;-33.398;-70.572;2023-01-25T07:42:58;12.70;;;1.83;;
74335;SDS011;62755;-33.398;-70.572;2023-01-25T07:45:47;9.15;;;1.75;;
74335;SDS011;62755;-33.398;-70.572;2023-01-25T07:48:38;6.53;;;1.52;;
74335;SDS011;62755;-33.398;-70.572;2023-01-25T07:51:32;9.23;;;1.40;;
74335;SDS011;62755;-33.398;-70.572;2023-01-25T07:54:21;13.30;;;1.95;;
74335;SDS011;62755;-33.398;-70.572;2023-01-25T07:57:10;5.85;;;1.83;;
74335;SDS011;62755;-33.398;-70.572;2023-01-25T07:59:59;12.48;;;1.70;;
74335;SDS011;62755;-33.398;-70.572;2023-01-25T08:02:49;7.35;;;1.42;;
74335;SDS011;62755;-33.398;-70.572;2023-01-25T08:05:44;11.48;;;1.40;;
74335;SDS011;62755;-33.398;-70.572;2023-01-25T08:08:34;10.43;;;1.80;;
74335;SDS011;62755;-33.398;-70.572;2023-01-25T08:11:26;13.18;;;1.60;;
74335;SDS011;62755;-33.398;-70.572;2023-01-25T08:14:16;8.10;;;1.83;;
74335;SDS011;62755;-33.398;-70.572;2023-01-25T08:17:05;6.30;;;1.70;;
74335;SDS011;62755;-33.398;-70.572;2023-01-25T08:19:55;6.70;;;1.48;;
74335;SDS011;62755;-33.398;-70.572;2023-01-25T08:22:46;6.60;;;1.50;;
74335;SDS011;62755;-33.398;-70.572;2023-01-25T08:25:35;7.57;;;1.50;;
74335;SDS011;62755;-33.398;-70.572;2023-01-25T08:28:25;4.72;;;1.42;;
74335;SDS011;62755;-33.398;-70.572;2023-01-25T08:31:15;4.88;;;1.40;;
74335;SDS011;62755;-33.398;-70.572;2023-01-25T08:34:06;7.53;;;1.50;;
74335;SDS011;62755;-33.398;-70.572;2023-01-25T08:36:57;11.98;;;1.90;;
74335;SDS011;62755;-33.398;-70.572;2023-01-25T08:39:48;14.73;;;1.90;;
74335;SDS011;62755;-33.398;-70.572;2023-01-25T08:42:37;6.55;;;1.40;;
74335;SDS011;62755;-33.398;-70.572;2023-01-25T08:45:27;10.13;;;1.75;;
74335;SDS011;62755;-33.398;-70.572;2023-01-25T08:48:19;7.13;;;1.42;;
74335;SDS011;62755;-33.398;-70.572;2023-01-25T08:51:08;10.02;;;1.73;;
74335;SDS011;62755;-33.398;-70.572;2023-01-25T08:54:03;13.13;;;2.00;;
74335;SDS011;62755;-33.398;-70.572;2023-01-25T08:56:56;8.55;;;1.60;;
74335;SDS011;62755;-33.398;-70.572;2023-01-25T08:59:46;8.80;;;1.65;;
74335;SDS011;62755;-33.398;-70.572;2023-01-25T09:02:35;11.98;;;1.55;;
74335;SDS011;62755;-33.398;-70.572;2023-01-25T09:05:24;7.88;;;1.55;;
74335;SDS011;62755;-33.398;-70.572;2023-01-25T09:08:13;5.88;;;1.58;;
74335;SDS011;62755;-33.398;-70.572;2023-01-25T09:11:03;13.88;;;2.03;;
74335;SDS011;62755;-33.398;-70.572;2023-01-25T09:13:55;8.18;;;1.42;;
74335;SDS011;62755;-33.398;-70.572;2023-01-25T09:16:45;10.65;;;1.88;;
74335;SDS011;62755;-33.398;-70.572;2023-01-25T09:19:34;8.30;;;1.75;;
74335;SDS011;62755;-33.398;-70.572;2023-01-25T09:22:24;11.25;;;1.63;;
74335;SDS011;62755;-33.398;-70.572;2023-01-25T09:25:13;13.10;;;1.70;;
74335;SDS011;62755;-33.398;-70.572;2023-01-25T09:28:03;11.38;;;2.13;;
74335;SDS011;62755;-33.398;-70.572;2023-01-25T09:30:58;14.68;;;1.90;;
74335;SDS011;62755;-33.398;-70.572;2023-01-25T09:33:48;9.20;;;1.83;;
74335;SDS011;62755;-33.398;-70.572;2023-01-25T09:36:38;8.07;;;2.53;;
74335;SDS011;62755;-33.398;-70.572;2023-01-25T09:39:27;12.07;;;1.88;;
74335;SDS011;62755;-33.398;-70.572;2023-01-25T09:42:21;15.25;;;2.38;;
74335;SDS011;62755;-33.398;-70.572;2023-01-25T09:45:25;10.18;;;2.38;;
74335;SDS011;62755;-33.398;-70.572;2023-01-25T09:48:22;11.48;;;1.88;;
74335;SDS011;62755;-33.398;-70.572;2023-01-25T09:51:20;13.52;;;1.80;;
74335;SDS011;62755;-33.398;-70.572;2023-01-25T09:57:08;22.45;;;4.68;;
74335;SDS011;62755;-33.398;-70.572;2023-01-25T10:02:54;14.63;;;2.70;;
74335;SDS011;62755;-33.398;-70.572;2023-01-25T10:05:51;16.95;;;2.90;;
74335;SDS011;62755;-33.398;-70.572;2023-01-25T10:08:45;13.32;;;2.80;;
74335;SDS011;62755;-33.398;-70.572;2023-01-25T10:11:40;19.80;;;3.25;;
74335;SDS011;62755;-33.398;-70.572;2023-01-25T10:14:30;12.45;;;2.88;;
74335;SDS011;62755;-33.398;-70.572;2023-01-25T10:17:22;9.85;;;2.40;;
74335;SDS011;62755;-33.398;-70.572;2023-01-25T10:20:21;10.55;;;2.25;;
74335;SDS011;62755;-33.398;-70.572;2023-01-25T10:26:38;7.18;;;1.77;;
74335;SDS011;62755;-33.398;-70.572;2023-01-25T10:29:31;9.43;;;2.25;;
74335;SDS011;62755;-33.398;-70.572;2023-01-25T10:32:24;10.50;;;1.90;;
74335;SDS011;62755;-33.398;-70.572;2023-01-25T10:35:17;8.15;;;2.40;;
74335;SDS011;62755;-33.398;-70.572;2023-01-25T10:38:10;13.10;;;1.83;;
74335;SDS011;62755;-33.398;-70.572;2023-01-25T10:41:06;15.45;;;3.90;;
74335;SDS011;62755;-33.398;-70.572;2023-01-25T10:43:59;16.02;;;2.40;;
74335;SDS011;62755;-33.398;-70.572;2023-01-25T10:47:05;9.13;;;2.05;;
74335;SDS011;62755;-33.398;-70.572;2023-01-25T10:50:05;8.57;;;1.83;;
74335;SDS011;62755;-33.398;-70.572;2023-01-25T10:52:56;10.77;;;1.77;;
74335;SDS011;62755;-33.398;-70.572;2023-01-25T10:55:53;9.93;;;1.88;;
74335;SDS011;62755;-33.398;-70.572;2023-01-25T10:58:47;10.27;;;2.67;;
74335;SDS011;62755;-33.398;-70.572;2023-01-25T11:01:39;11.98;;;3.05;;
74335;SDS011;62755;-33.398;-70.572;2023-01-25T11:04:32;6.38;;;2.05;;
74335;SDS011;62755;-33.398;-70.572;2023-01-25T11:07:25;12.60;;;4.30;;
74335;SDS011;62755;-33.398;-70.572;2023-01-25T11:10:25;25.95;;;11.68;;
74335;SDS011;62755;-33.398;-70.572;2023-01-25T11:13:17;15.52;;;3.15;;
74335;SDS011;62755;-33.398;-70.572;2023-01-25T11:16:18;7.38;;;1.98;;
74335;SDS011;62755;-33.398;-70.572;2023-01-25T11:19:27;19.88;;;3.33;;
74335;SDS011;62755;-33.398;-70.572;2023-01-25T11:22:20;10.73;;;2.63;;
74335;SDS011;62755;-33.398;-70.572;2023-01-25T11:25:27;8.07;;;2.20;;
74335;SDS011;62755;-33.398;-70.572;2023-01-25T11:28:19;18.48;;;4.03;;
74335;SDS011;62755;-33.398;-70.572;2023-01-25T11:31:10;10.93;;;3.15;;
74335;SDS011;62755;-33.398;-70.572;2023-01-25T11:34:10;13.27;;;2.45;;
74335;SDS011;62755;-33.398;-70.572;2023-01-25T11:37:04;13.27;;;2.92;;
74335;SDS011;62755;-33.398;-70.572;2023-01-25T11:40:12;11.95;;;2.58;;
74335;SDS011;62755;-33.398;-70.572;2023-01-25T11:43:11;26.38;;;3.28;;
74335;SDS011;62755;-33.398;-70.572;2023-01-25T11:46:15;14.55;;;3.30;;
74335;SDS011;62755;-33.398;-70.572;2023-01-25T11:49:34;20.17;;;5.03;;
74335;SDS011;62755;-33.398;-70.572;2023-01-25T11:52:34;17.02;;;3.38;;
74335;SDS011;62755;-33.398;-70.572;2023-01-25T11:55:36;12.27;;;2.63;;
74335;SDS011;62755;-33.398;-70.572;2023-01-25T11:58:38;18.55;;;3.03;;
74335;SDS011;62755;-33.398;-70.572;2023-01-25T12:01:53;16.33;;;2.28;;
74335;SDS011;62755;-33.398;-70.572;2023-01-25T12:08:18;17.30;;;3.85;;
74335;SDS011;62755;-33.398;-70.572;2023-01-25T12:11:35;10.85;;;2.45;;
74335;SDS011;62755;-33.398;-70.572;2023-01-25T12:14:38;9.93;;;2.78;;
74335;SDS011;62755;-33.398;-70.572;2023-01-25T12:17:43;16.23;;;2.85;;
74335;SDS011;62755;-33.398;-70.572;2023-01-25T12:20:51;8.43;;;2.33;;
74335;SDS011;62755;-33.398;-70.572;2023-01-25T12:24:03;9.02;;;2.53;;
74335;SDS011;62755;-33.398;-70.572;2023-01-25T12:30:03;11.10;;;2.70;;
74335;SDS011;62755;-33.398;-70.572;2023-01-25T12:33:04;17.38;;;3.13;;
74335;SDS011;62755;-33.398;-70.572;2023-01-25T12:36:02;20.05;;;4.07;;
74335;SDS011;62755;-33.398;-70.572;2023-01-25T12:41:46;14.40;;;2.60;;
74335;SDS011;62755;-33.398;-70.572;2023-01-25T12:44:40;7.95;;;2.88;;
74335;SDS011;62755;-33.398;-70.572;2023-01-25T12:47:33;9.77;;;3.03;;
74335;SDS011;62755;-33.398;-70.572;2023-01-25T12:50:29;18.42;;;4.85;;
74335;SDS011;62755;-33.398;-70.572;2023-01-25T12:53:25;18.55;;;3.72;;
74335;SDS011;62755;-33.398;-70.572;2023-01-25T12:56:24;13.07;;;2.72;;
74335;SDS011;62755;-33.398;-70.572;2023-01-25T12:59:22;21.45;;;2.40;;
74335;SDS011;62755;-33.398;-70.572;2023-01-25T13:02:24;13.35;;;3.10;;
74335;SDS011;62755;-33.398;-70.572;2023-01-25T13:05:28;12.10;;;2.75;;
74335;SDS011;62755;-33.398;-70.572;2023-01-25T13:08:26;15.70;;;2.88;;
74335;SDS011;62755;-33.398;-70.572;2023-01-25T13:11:23;11.77;;;2.78;;
74335;SDS011;62755;-33.398;-70.572;2023-01-25T13:14:25;12.95;;;2.38;;
74335;SDS011;62755;-33.398;-70.572;2023-01-25T13:17:21;18.58;;;4.85;;
74335;SDS011;62755;-33.398;-70.572;2023-01-25T13:23:40;19.35;;;3.58;;
74335;SDS011;62755;-33.398;-70.572;2023-01-25T13:26:44;18.92;;;4.15;;
74335;SDS011;62755;-33.398;-70.572;2023-01-25T13:29:44;16.85;;;3.35;;
74335;SDS011;62755;-33.398;-70.572;2023-01-25T13:32:53;15.90;;;3.08;;
74335;SDS011;62755;-33.398;-70.572;2023-01-25T13:35:44;16.45;;;3.05;;
74335;SDS011;62755;-33.398;-70.572;2023-01-25T13:38:33;19.33;;;5.63;;
74335;SDS011;62755;-33.398;-70.572;2023-01-25T13:41:25;15.63;;;4.20;;
74335;SDS011;62755;-33.398;-70.572;2023-01-25T13:44:19;16.50;;;3.40;;
74335;SDS011;62755;-33.398;-70.572;2023-01-25T13:47:13;19.50;;;4.03;;
74335;SDS011;62755;-33.398;-70.572;2023-01-25T13:50:16;19.83;;;3.40;;
74335;SDS011;62755;-33.398;-70.572;2023-01-25T13:53:20;23.90;;;3.97;;
74335;SDS011;62755;-33.398;-70.572;2023-01-25T13:56:25;11.93;;;3.97;;
74335;SDS011;62755;-33.398;-70.572;2023-01-25T13:59:25;20.85;;;6.53;;
74335;SDS011;62755;-33.398;-70.572;2023-01-25T14:02:15;17.15;;;4.38;;
74335;SDS011;62755;-33.398;-70.572;2023-01-25T14:05:16;28.13;;;8.95;;
74335;SDS011;62755;-33.398;-70.572;2023-01-25T14:08:07;12.80;;;3.70;;
74335;SDS011;62755;-33.398;-70.572;2023-01-25T14:10:57;18.25;;;5.60;;
74335;SDS011;62755;-33.398;-70.572;2023-01-25T14:13:59;15.43;;;4.57;;
74335;SDS011;62755;-33.398;-70.572;2023-01-25T14:16:59;20.58;;;4.32;;
74335;SDS011;62755;-33.398;-70.572;2023-01-25T14:19:58;13.90;;;4.00;;
74335;SDS011;62755;-33.398;-70.572;2023-01-25T14:22:49;10.32;;;3.67;;
74335;SDS011;62755;-33.398;-70.572;2023-01-25T14:25:39;26.15;;;8.13;;
74335;SDS011;62755;-33.398;-70.572;2023-01-25T14:28:28;26.73;;;7.25;;
74335;SDS011;62755;-33.398;-70.572;2023-01-25T14:31:20;16.95;;;3.90;;
74335;SDS011;62755;-33.398;-70.572;2023-01-25T14:34:14;21.42;;;5.40;;
74335;SDS011;62755;-33.398;-70.572;2023-01-25T14:37:09;22.65;;;5.95;;
74335;SDS011;62755;-33.398;-70.572;2023-01-25T14:40:09;21.20;;;6.03;;
74335;SDS011;62755;-33.398;-70.572;2023-01-25T14:42:59;20.45;;;4.32;;
74335;SDS011;62755;-33.398;-70.572;2023-01-25T14:45:49;12.55;;;3.90;;
74335;SDS011;62755;-33.398;-70.572;2023-01-25T14:48:40;11.98;;;4.20;;
74335;SDS011;62755;-33.398;-70.572;2023-01-25T14:51:29;16.80;;;4.22;;
74335;SDS011;62755;-33.398;-70.572;2023-01-25T14:54:20;10.73;;;3.45;;
74335;SDS011;62755;-33.398;-70.572;2023-01-25T14:57:20;15.73;;;3.90;;
74335;SDS011;62755;-33.398;-70.572;2023-01-25T15:00:20;20.67;;;4.32;;
74335;SDS011;62755;-33.398;-70.572;2023-01-25T15:03:16;10.15;;;4.25;;
74335;SDS011;62755;-33.398;-70.572;2023-01-25T15:06:08;14.90;;;3.80;;
74335;SDS011;62755;-33.398;-70.572;2023-01-25T15:09:01;10.40;;;3.20;;
74335;SDS011;62755;-33.398;-70.572;2023-01-25T15:11:57;21.70;;;10.50;;
74335;SDS011;62755;-33.398;-70.572;2023-01-25T15:14:47;20.27;;;4.22;;
74335;SDS011;62755;-33.398;-70.572;2023-01-25T15:17:38;17.58;;;3.65;;
74335;SDS011;62755;-33.398;-70.572;2023-01-25T15:20:30;14.38;;;4.15;;
74335;SDS011;62755;-33.398;-70.572;2023-01-25T15:23:23;17.17;;;4.10;;
74335;SDS011;62755;-33.398;-70.572;2023-01-25T15:26:16;11.85;;;3.60;;
74335;SDS011;62755;-33.398;-70.572;2023-01-25T15:29:10;16.92;;;3.80;;
74335;SDS011;62755;-33.398;-70.572;2023-01-25T15:32:01;22.13;;;3.67;;
74335;SDS011;62755;-33.398;-70.572;2023-01-25T15:34:51;7.25;;;3.55;;
74335;SDS011;62755;-33.398;-70.572;2023-01-25T15:37:40;16.67;;;3.53;;
74335;SDS011;62755;-33.398;-70.572;2023-01-25T15:40:31;15.88;;;3.92;;
74335;SDS011;62755;-33.398;-70.572;2023-01-25T15:43:20;18.10;;;3.13;;
74335;SDS011;62755;-33.398;-70.572;2023-01-25T15:46:12;15.40;;;3.65;;
74335;SDS011;62755;-33.398;-70.572;2023-01-25T15:49:04;17.50;;;3.60;;
74335;SDS011;62755;-33.398;-70.572;2023-01-25T15:51:55;11.48;;;3.28;;
74335;SDS011;62755;-33.398;-70.572;2023-01-25T15:54:44;14.40;;;3.47;;
74335;SDS011;62755;-33.398;-70.572;2023-01-25T15:57:35;16.40;;;3.95;;
74335;SDS011;62755;-33.398;-70.572;2023-01-25T16:00:24;16.83;;;3.60;;
74335;SDS011;62755;-33.398;-70.572;2023-01-25T16:03:14;15.13;;;3.50;;
74335;SDS011;62755;-33.398;-70.572;2023-01-25T16:06:06;13.35;;;3.20;;
74335;SDS011;62755;-33.398;-70.572;2023-01-25T16:09:15;12.70;;;3.67;;
74335;SDS011;62755;-33.398;-70.572;2023-01-25T16:12:07;16.88;;;4.10;;
74335;SDS011;62755;-33.398;-70.572;2023-01-25T16:14:58;14.85;;;3.95;;
74335;SDS011;62755;-33.398;-70.572;2023-01-25T16:17:47;10.10;;;3.67;;
74335;SDS011;62755;-33.398;-70.572;2023-01-25T16:20:37;12.77;;;3.95;;
74335;SDS011;62755;-33.398;-70.572;2023-01-25T16:23:26;18.65;;;4.47;;
74335;SDS011;62755;-33.398;-70.572;2023-01-25T16:26:17;11.27;;;3.85;;
74335;SDS011;62755;-33.398;-70.572;2023-01-25T16:29:10;15.20;;;4.38;;
74335;SDS011;62755;-33.398;-70.572;2023-01-25T16:32:01;18.25;;;4.47;;
74335;SDS011;62755;-33.398;-70.572;2023-01-25T16:34:50;14.27;;;5.20;;
74335;SDS011;62755;-33.398;-70.572;2023-01-25T16:37:40;14.35;;;3.45;;
74335;SDS011;62755;-33.398;-70.572;2023-01-25T16:40:30;17.90;;;4.45;;
74335;SDS011;62755;-33.398;-70.572;2023-01-25T16:43:23;21.10;;;4.22;;
74335;SDS011;62755;-33.398;-70.572;2023-01-25T16:46:17;25.80;;;4.15;;
74335;SDS011;62755;-33.398;-70.572;2023-01-25T16:49:09;22.52;;;4.13;;
74335;SDS011;62755;-33.398;-70.572;2023-01-25T16:52:03;14.65;;;3.85;;